Time;durP1;ratioP1;P1;durP2;ratioP2;P2;SDS_P1;SDS_P2;PMS_P1;PMS_P2;Temp;Humidity;BMP_temperature;BMP_pressure;BME280_temperature;BME280_humidity;BME280_pressure;Samples;Min_cycle;Max_cycle;Signal;HPM_P1;HPM_P2
2023/04/02 00:01:38;;;;;;;2.03;1.60;;;;;;;9.24;100.00;99192.59;5041244;28;20594;-61
2023/04/02 00:04:10;;;;;;;1.97;1.40;;;;;;;9.35;100.00;99201.28;5048535;28;20545;-60
2023/04/02 00:06:43;;;;;;;1.63;1.53;;;;;;;9.43;100.00;99211.03;5032836;28;20202;-61
2023/04/02 00:09:11;;;;;;;2.03;1.60;;;;;;;9.41;100.00;99210.31;5033040;28;20234;-60
2023/04/02 00:11:40;;;;;;;2.33;1.87;;;;;;;9.33;100.00;99213.38;5035284;28;20300;-60
2023/04/02 00:14:16;;;;;;;1.33;1.23;;;;;;;9.40;100.00;99218.94;5041373;28;20208;-60
2023/04/02 00:16:42;;;;;;;1.40;1.30;;;;;;;9.41;100.00;99217.19;5031547;28;20212;-60
2023/04/02 00:19:16;;;;;;;1.40;1.30;;;;;;;9.33;100.00;99221.06;5033062;28;20183;-59
2023/04/02 00:21:44;;;;;;;1.70;1.60;;;;;;;9.19;100.00;99221.94;5024995;28;20229;-60
2023/04/02 00:24:14;;;;;;;1.70;1.60;;;;;;;9.18;100.00;99230.56;5031269;28;20182;-61
2023/04/02 00:26:54;;;;;;;2.73;1.53;;;;;;;9.10;100.00;99227.63;5047982;28;20181;-63
2023/04/02 00:29:19;;;;;;;1.80;1.70;;;;;;;9.19;100.00;99236.50;5047943;28;20197;-60
2023/04/02 00:31:47;;;;;;;3.50;1.60;;;;;;;9.20;100.00;99238.16;5035943;28;20262;-61
2023/04/02 00:34:32;;;;;;;2.23;1.77;;;;;;;9.15;100.00;99247.88;5034042;28;20193;-61
2023/04/02 00:36:58;;;;;;;1.60;1.50;;;;;;;9.31;100.00;99242.63;5033825;28;20177;-61
2023/04/02 00:39:26;;;;;;;1.70;1.60;;;;;;;9.18;100.00;99240.81;5047888;28;20273;-60
2023/04/02 00:42:03;;;;;;;2.23;1.57;;;;;;;9.21;100.00;99242.38;5041142;28;20232;-60
2023/04/02 00:44:31;;;;;;;1.70;1.47;;;;;;;9.18;100.00;99238.25;5030952;28;20185;-59
2023/04/02 00:47:01;;;;;;;1.97;1.73;;;;;;;9.22;100.00;99246.59;5048054;28;20205;-60
2023/04/02 00:49:40;;;;;;;1.80;1.70;;;;;;;9.18;100.00;99242.59;5047634;28;20209;-60
2023/04/02 00:52:13;;;;;;;3.30;1.90;;;;;;;9.26;100.00;99250.59;5039715;28;20260;-61
2023/04/02 00:54:47;;;;;;;1.80;1.70;;;;;;;9.17;100.00;99256.31;5047474;28;20181;-59
2023/04/02 00:57:20;;;;;;;2.40;1.50;;;;;;;9.18;100.00;99256.22;5032293;28;20201;-60
2023/04/02 00:59:58;;;;;;;2.07;1.93;;;;;;;8.95;100.00;99252.50;5030404;28;20189;-61
2023/04/02 01:02:31;;;;;;;2.00;1.80;;;;;;;9.04;100.00;99246.81;5020076;28;20230;-59
2023/04/02 01:05:01;;;;;;;2.27;2.00;;;;;;;9.19;100.00;99260.44;5032123;28;20264;-60
2023/04/02 01:07:46;;;;;;;3.20;2.13;;;;;;;9.07;100.00;99258.63;5034108;28;20174;-60
2023/04/02 01:10:21;;;;;;;1.97;1.77;;;;;;;9.11;100.00;99265.22;5038427;28;20308;-60
2023/04/02 01:13:26;;;;;;;2.53;1.73;;;;;;;8.95;100.00;99264.50;5044551;28;20535;-61
2023/04/02 01:16:10;;;;;;;2.03;1.83;;;;;;;9.01;100.00;99270.09;4967277;28;20198;-60
2023/04/02 01:18:45;;;;;;;2.60;2.20;;;;;;;9.03;100.00;99262.31;5030397;28;20184;-59
2023/04/02 01:21:20;;;;;;;2.10;1.90;;;;;;;9.06;100.00;99269.00;5040077;28;20228;-60
2023/04/02 01:23:59;;;;;;;2.03;1.90;;;;;;;9.02;100.00;99279.44;5030155;28;20177;-60
2023/04/02 01:26:33;;;;;;;2.33;2.13;;;;;;;9.07;100.00;99281.72;5032128;28;20200;-60
2023/04/02 01:29:17;;;;;;;1.90;1.80;;;;;;;9.11;100.00;99279.78;5031963;28;20205;-60
2023/04/02 01:31:44;;;;;;;2.10;1.97;;;;;;;9.19;100.00;99275.84;5034571;28;20220;-60
2023/04/02 01:34:14;;;;;;;3.10;2.27;;;;;;;9.24;100.00;99278.13;5029833;28;20186;-60
2023/04/02 01:36:52;;;;;;;2.27;1.90;;;;;;;9.13;100.00;99285.63;5045954;28;20188;-60
2023/04/02 01:39:27;;;;;;;1.93;1.80;;;;;;;9.04;100.00;99287.03;5029840;28;20223;-60
2023/04/02 01:41:58;;;;;;;2.27;2.07;;;;;;;9.13;100.00;99281.34;5023519;28;20232;-60
2023/04/02 01:44:30;;;;;;;2.83;2.00;;;;;;;9.18;100.00;99281.88;5042696;28;20642;-60
2023/04/02 01:46:57;;;;;;;2.20;2.00;;;;;;;9.15;100.00;99291.50;5030242;28;20200;-60
2023/04/02 01:49:23;;;;;;;2.23;2.03;;;;;;;9.08;100.00;99300.50;5031418;28;20201;-60
2023/04/02 01:51:55;;;;;;;3.43;2.10;;;;;;;9.12;100.00;99299.41;5035064;28;20229;-60
2023/04/02 01:54:22;;;;;;;1.97;1.83;;;;;;;9.11;100.00;99301.13;5030027;28;20170;-60
2023/04/02 01:56:48;;;;;;;1.70;1.60;;;;;;;9.10;100.00;99303.81;5046543;28;20174;-60
2023/04/02 01:59:21;;;;;;;3.00;1.90;;;;;;;9.03;100.00;99301.59;5029924;28;20181;-60
2023/04/02 02:01:58;;;;;;;1.70;1.60;;;;;;;8.97;100.00;99298.59;5023137;28;20611;-60
2023/04/02 02:04:24;;;;;;;1.90;1.80;;;;;;;8.98;100.00;99303.63;5029962;28;20721;-60
2023/04/02 02:06:49;;;;;;;1.60;1.50;;;;;;;9.07;100.00;99304.81;5031292;28;20261;-60
2023/04/02 02:09:22;;;;;;;1.83;1.70;;;;;;;9.13;100.00;99314.69;5031131;28;20233;-60
2023/04/02 02:11:48;;;;;;;1.67;1.57;;;;;;;9.11;100.00;99311.41;5023315;28;20221;-61
2023/04/02 02:14:18;;;;;;;2.30;1.90;;;;;;;9.08;100.00;99315.88;5032821;28;20228;-60
2023/04/02 02:16:46;;;;;;;1.87;1.70;;;;;;;9.11;100.00;99319.09;5029683;28;20656;-60
2023/04/02 02:19:26;;;;;;;2.00;1.63;;;;;;;9.13;100.00;99316.41;5029961;28;20550;-60
2023/04/02 02:21:55;;;;;;;1.70;1.60;;;;;;;9.09;100.00;99320.09;5023123;28;20229;-63
2023/04/02 02:24:32;;;;;;;1.17;1.13;;;;;;;9.07;100.00;99320.22;5031286;28;20197;-68
2023/04/02 02:27:13;;;;;;;1.30;1.20;;;;;;;9.16;100.00;99323.94;5030033;28;20194;-60
2023/04/02 02:29:41;;;;;;;1.20;1.10;;;;;;;9.00;100.00;99322.31;5030994;28;20252;-60
2023/04/02 02:32:09;;;;;;;1.83;1.37;;;;;;;8.99;100.00;99327.53;5021830;28;20221;-59
2023/04/02 02:34:42;;;;;;;0.97;0.97;;;;;;;9.03;100.00;99332.41;5029245;28;20291;-60
2023/04/02 02:37:17;;;;;;;1.63;1.53;;;;;;;9.06;100.00;99333.94;5046682;28;20190;-60
2023/04/02 02:39:45;;;;;;;1.37;1.27;;;;;;;9.19;100.00;99336.56;5029921;28;20189;-60
2023/04/02 02:42:21;;;;;;;1.27;1.17;;;;;;;9.16;100.00;99340.16;5020905;28;20588;-60
2023/04/02 02:44:50;;;;;;;3.17;1.13;;;;;;;9.28;100.00;99346.28;5018234;28;20178;-59
2023/04/02 02:47:25;;;;;;;1.40;1.30;;;;;;;9.22;100.00;99348.44;5029267;28;20181;-60
2023/04/02 02:50:01;;;;;;;2.33;1.00;;;;;;;9.20;100.00;99353.63;5029974;28;20209;-60
2023/04/02 02:52:33;;;;;;;2.33;0.97;;;;;;;9.22;100.00;99353.56;5022965;28;20280;-60
2023/04/02 02:55:07;;;;;;;1.57;1.10;;;;;;;9.18;100.00;99358.84;5050144;28;20186;-60
2023/04/02 02:57:40;;;;;;;1.30;1.20;;;;;;;9.24;100.00;99354.28;5034556;28;20193;-63
2023/04/02 03:00:08;;;;;;;2.30;1.30;;;;;;;9.24;100.00;99359.41;5013459;28;20251;-60
2023/04/02 03:02:37;;;;;;;1.40;1.30;;;;;;;9.16;100.00;99365.81;5044381;28;20700;-60
2023/04/02 03:05:03;;;;;;;1.60;1.50;;;;;;;9.19;100.00;99368.22;5013312;28;20189;-60
2023/04/02 03:07:30;;;;;;;1.73;1.40;;;;;;;9.22;100.00;99367.19;5013252;28;20182;-61
2023/04/02 03:10:17;;;;;;;2.00;1.20;;;;;;;9.13;100.00;99368.59;5012922;28;20234;-60
2023/04/02 03:13:18;;;;;;;1.20;1.17;;;;;;;9.08;100.00;99375.72;5022652;28;20217;-60
2023/04/02 03:16:00;;;;;;;1.73;1.27;;;;;;;9.01;100.00;99382.13;5016699;28;20228;-60
2023/04/02 03:18:50;;;;;;;1.30;1.20;;;;;;;9.03;100.00;99383.69;5032343;28;20265;-60
2023/04/02 03:22:04;;;;;;;1.53;1.27;;;;;;;8.92;100.00;99388.66;5033398;28;20324;-60
2023/04/02 03:24:36;;;;;;;2.03;1.30;;;;;;;9.16;100.00;99395.78;4975745;28;20632;-60
2023/04/02 03:27:08;;;;;;;2.00;1.20;;;;;;;9.20;100.00;99399.81;4992360;28;20218;-60
2023/04/02 03:29:37;;;;;;;1.37;1.27;;;;;;;9.21;100.00;99404.03;4992045;28;20219;-67
2023/04/02 03:32:15;;;;;;;4.20;1.57;;;;;;;9.20;100.00;99405.78;4957806;28;20246;-61
2023/04/02 03:34:46;;;;;;;2.73;1.40;;;;;;;9.26;100.00;99408.91;4991769;28;20190;-60
2023/04/02 03:37:22;;;;;;;1.60;1.40;;;;;;;9.22;100.00;99413.38;4975898;28;20727;-61
2023/04/02 03:39:50;;;;;;;1.40;1.30;;;;;;;9.28;100.00;99415.59;4976005;28;20171;-60
2023/04/02 03:42:21;;;;;;;2.67;1.50;;;;;;;9.22;100.00;99418.53;4981610;28;20301;-60
2023/04/02 03:45:09;;;;;;;2.00;1.63;;;;;;;9.13;100.00;99425.03;4992307;28;20247;-60
2023/04/02 03:47:38;;;;;;;2.17;1.60;;;;;;;9.08;100.00;99424.47;4975546;28;20184;-60
2023/04/02 03:50:07;;;;;;;3.00;1.60;;;;;;;9.06;100.00;99428.06;4965655;28;20203;-59
2023/04/02 03:52:35;;;;;;;1.50;1.40;;;;;;;8.90;100.00;99436.63;4986867;28;20299;-60
2023/04/02 03:55:09;;;;;;;1.40;1.30;;;;;;;8.94;100.00;99439.84;5001663;28;20194;-60
2023/04/02 03:57:39;;;;;;;2.10;1.70;;;;;;;9.00;100.00;99448.00;4999573;28;20183;-60
2023/04/02 04:00:12;;;;;;;1.60;1.50;;;;;;;8.98;100.00;99454.13;5002287;28;20269;-61
2023/04/02 04:02:43;;;;;;;2.07;1.30;;;;;;;9.05;100.00;99458.00;5031169;28;20204;-60
2023/04/02 04:05:21;;;;;;;2.73;1.40;;;;;;;9.10;100.00;99453.41;5032146;28;20233;-62
2023/04/02 04:07:52;;;;;;;1.67;1.57;;;;;;;9.15;100.00;99456.56;5033333;28;20202;-60
2023/04/02 04:10:29;;;;;;;1.93;1.60;;;;;;;9.00;100.00;99460.00;5040286;28;20320;-60
2023/04/02 04:13:01;;;;;;;1.50;1.40;;;;;;;8.99;100.00;99466.91;5044770;28;20205;-61
2023/04/02 04:15:37;;;;;;;1.33;1.23;;;;;;;9.03;100.00;99475.25;5033332;28;20206;-60
2023/04/02 04:18:23;;;;;;;1.60;1.50;;;;;;;9.07;100.00;99475.84;5048372;28;20170;-59
2023/04/02 04:20:56;;;;;;;1.70;1.60;;;;;;;9.22;100.00;99481.88;5024801;28;20225;-60
2023/04/02 04:23:29;;;;;;;1.83;1.67;;;;;;;9.01;100.00;99480.44;5031313;28;20178;-60
2023/04/02 04:26:39;;;;;;;1.53;1.43;;;;;;;9.00;100.00;99488.22;5031998;28;20193;-61
2023/04/02 04:29:46;;;;;;;2.27;1.50;;;;;;;9.00;100.00;99488.22;4985142;28;20221;-61
2023/04/02 04:32:31;;;;;;;1.97;1.67;;;;;;;9.04;100.00;99489.69;4993955;28;20252;-60
2023/04/02 04:35:23;;;;;;;2.30;2.20;;;;;;;9.01;100.00;99502.72;5035679;28;20636;-60
2023/04/02 04:37:57;;;;;;;2.10;2.00;;;;;;;9.13;100.00;99501.16;5031495;28;20273;-60
2023/04/02 04:40:27;;;;;;;2.33;2.13;;;;;;;9.19;100.00;99501.66;5023762;28;20230;-59
2023/04/02 04:42:59;;;;;;;2.10;1.90;;;;;;;9.12;100.00;99497.78;5030861;28;20205;-60
2023/04/02 04:45:40;;;;;;;2.20;2.00;;;;;;;8.99;100.00;99512.22;5035576;28;20190;-60
2023/04/02 04:48:20;;;;;;;2.47;2.27;;;;;;;9.08;100.00;99511.72;5030869;28;20604;-60
2023/04/02 04:50:49;;;;;;;2.20;2.00;;;;;;;9.08;100.00;99518.56;5024398;28;20240;-60
2023/04/02 04:53:19;;;;;;;2.30;2.10;;;;;;;9.02;100.00;99524.91;5030687;28;20279;-59
2023/04/02 04:55:47;;;;;;;2.43;2.23;;;;;;;9.10;100.00;99521.88;5032451;28;20641;-61
2023/04/02 04:58:34;;;;;;;2.33;2.13;;;;;;;8.99;100.00;99525.91;5030813;28;20178;-60
2023/04/02 05:01:12;;;;;;;3.23;2.00;;;;;;;9.08;100.00;99533.97;5028939;28;20224;-59
2023/04/02 05:03:51;;;;;;;2.20;2.00;;;;;;;9.08;100.00;99536.53;5038585;28;20186;-60
2023/04/02 05:06:34;;;;;;;1.83;1.70;;;;;;;9.07;100.00;99540.84;5030711;28;20251;-60
2023/04/02 05:09:22;;;;;;;2.20;2.00;;;;;;;9.02;100.00;99545.41;5031612;28;20244;-60
2023/04/02 05:12:25;;;;;;;2.67;2.40;;;;;;;8.84;100.00;99553.25;5027555;28;20225;-60
2023/04/02 05:14:57;;;;;;;2.57;1.63;;;;;;;8.89;100.00;99558.09;5020742;28;20602;-61
2023/04/02 05:17:30;;;;;;;2.10;1.90;;;;;;;8.96;100.00;99554.28;5031012;28;20252;-61
2023/04/02 05:20:08;;;;;;;1.97;1.63;;;;;;;8.96;100.00;99564.53;5031044;28;20189;-60
2023/04/02 05:22:52;;;;;;;2.47;2.27;;;;;;;8.99;100.00;99568.66;4999784;28;20229;-61
2023/04/02 05:25:28;;;;;;;2.83;2.60;;;;;;;9.07;100.00;99569.06;5010772;28;20174;-60
2023/04/02 05:28:24;;;;;;;2.30;1.97;;;;;;;9.11;100.00;99579.97;5010937;28;20182;-63
2023/04/02 05:31:00;;;;;;;2.90;2.20;;;;;;;9.16;100.00;99581.34;4998291;28;20253;-60
2023/04/02 05:33:26;;;;;;;3.73;2.17;;;;;;;9.23;100.00;99583.56;5029949;28;20263;-60
2023/04/02 05:36:00;;;;;;;3.20;2.03;;;;;;;9.11;100.00;99580.78;5031540;28;20325;-60
2023/04/02 05:38:29;;;;;;;2.10;1.90;;;;;;;9.30;100.00;99587.44;5031754;28;20224;-61
2023/04/02 05:41:04;;;;;;;2.87;2.20;;;;;;;9.35;100.00;99596.56;5039731;28;20213;-61
2023/04/02 05:43:32;;;;;;;2.40;2.20;;;;;;;9.38;100.00;99598.09;5029818;28;20243;-61
2023/04/02 05:46:02;;;;;;;2.27;2.07;;;;;;;9.31;100.00;99599.38;5030236;28;20174;-60
2023/04/02 05:48:38;;;;;;;2.63;2.43;;;;;;;9.35;100.00;99611.09;5029992;28;20250;-61
2023/04/02 05:51:08;;;;;;;5.83;2.40;;;;;;;9.45;100.00;99601.13;5039353;28;20229;-60
2023/04/02 05:53:56;;;;;;;2.20;2.10;;;;;;;9.54;100.00;99608.31;5029741;28;20263;-59
2023/04/02 05:56:33;;;;;;;3.00;2.27;;;;;;;9.56;100.00;99609.03;5031463;28;20174;-59
2023/04/02 05:59:06;;;;;;;2.33;2.23;;;;;;;9.63;100.00;99612.09;5031051;28;20865;-59
2023/04/02 06:01:50;;;;;;;2.73;1.70;;;;;;;9.60;100.00;99613.09;5032826;28;20351;-60
2023/04/02 06:04:28;;;;;;;2.60;2.00;;;;;;;9.61;100.00;99616.47;5029694;28;20270;-59
2023/04/02 06:07:03;;;;;;;2.50;2.30;;;;;;;9.71;100.00;99625.28;5046835;28;20182;-62
2023/04/02 06:09:38;;;;;;;2.30;2.20;;;;;;;9.76;100.00;99628.44;5018816;28;20259;-59
2023/04/02 06:12:15;;;;;;;2.37;2.17;;;;;;;9.75;100.00;99631.91;5038622;28;20295;-60
2023/04/02 06:14:41;;;;;;;2.23;2.07;;;;;;;10.00;100.00;99638.19;5030864;28;20202;-60
2023/04/02 06:17:12;;;;;;;2.17;1.97;;;;;;;10.17;100.00;99647.44;5043865;28;20178;-60
2023/04/02 06:19:38;;;;;;;2.50;2.20;;;;;;;10.38;100.00;99645.38;5029398;28;20544;-61
2023/04/02 06:22:22;;;;;;;2.00;1.90;;;;;;;10.45;100.00;99649.19;5036230;28;20247;-62
2023/04/02 06:24:56;;;;;;;2.53;2.00;;;;;;;10.57;100.00;99647.63;5034417;28;20316;-59
2023/04/02 06:27:24;;;;;;;2.40;1.73;;;;;;;10.70;100.00;99663.09;5032830;28;20265;-60
2023/04/02 06:29:51;;;;;;;2.03;1.60;;;;;;;10.73;100.00;99659.50;5033657;28;20248;-61
2023/04/02 06:32:20;;;;;;;4.33;2.43;;;;;;;10.70;100.00;99668.25;5025314;28;20632;-60
2023/04/02 06:34:45;;;;;;;1.87;1.77;;;;;;;10.64;100.00;99666.91;5050286;28;20178;-61
2023/04/02 06:37:32;;;;;;;2.23;2.13;;;;;;;10.55;100.00;99680.31;5035080;28;20174;-61
2023/04/02 06:39:59;;;;;;;2.00;1.80;;;;;;;10.60;100.00;99683.41;5047034;28;20179;-61
2023/04/02 06:42:35;;;;;;;2.50;2.30;;;;;;;10.57;100.00;99683.63;5021924;28;20226;-61
2023/04/02 06:45:01;;;;;;;2.70;2.50;;;;;;;10.54;100.00;99688.13;5024683;28;20322;-60
2023/04/02 06:47:45;;;;;;;2.40;2.20;;;;;;;10.50;100.00;99687.47;5034430;28;20712;-60
2023/04/02 06:50:30;;;;;;;3.90;2.50;;;;;;;10.37;100.00;99697.69;5018390;28;20290;-63
2023/04/02 06:52:58;;;;;;;2.60;1.87;;;;;;;10.36;100.00;99705.44;5035244;28;20175;-62
2023/04/02 06:55:42;;;;;;;2.80;2.60;;;;;;;10.37;100.00;99702.84;5033306;28;20214;-62
2023/04/02 06:58:08;;;;;;;3.13;2.33;;;;;;;10.59;100.00;99706.66;5049935;28;20186;-59
2023/04/02 07:00:39;;;;;;;2.63;2.43;;;;;;;10.84;100.00;99712.88;5021105;28;20238;-59
2023/04/02 07:03:12;;;;;;;2.50;2.27;;;;;;;11.07;100.00;99720.00;5043027;28;20703;-59
2023/04/02 07:05:37;;;;;;;2.87;2.50;;;;;;;11.27;100.00;99725.63;5025705;28;20202;-59
2023/04/02 07:08:02;;;;;;;4.07;2.27;;;;;;;11.19;100.00;99726.13;5034723;28;20178;-59
2023/04/02 07:10:28;;;;;;;2.80;2.57;;;;;;;10.48;100.00;99733.88;5027319;28;20237;-59
2023/04/02 07:12:53;;;;;;;2.90;2.70;;;;;;;9.93;100.00;99742.22;5046443;28;20231;-58
2023/04/02 07:15:18;;;;;;;3.20;2.87;;;;;;;9.56;100.00;99744.31;5026571;28;20213;-59
2023/04/02 07:17:47;;;;;;;4.33;3.60;;;;;;;9.43;100.00;99757.84;5033107;28;20221;-61
2023/04/02 07:20:28;;;;;;;3.50;3.30;;;;;;;9.41;100.00;99758.84;5025336;28;20197;-59
2023/04/02 07:22:54;;;;;;;4.17;3.37;;;;;;;9.37;100.00;99768.44;5058025;28;20178;-61
2023/04/02 07:25:19;;;;;;;3.87;3.57;;;;;;;9.30;100.00;99775.66;5034417;28;20186;-60
2023/04/02 07:27:45;;;;;;;4.60;3.63;;;;;;;9.20;100.00;99787.31;5034154;28;20583;-59
2023/04/02 07:30:10;;;;;;;4.43;4.03;;;;;;;9.00;100.00;99801.22;5004061;28;20206;-60
2023/04/02 07:32:37;;;;;;;1.77;1.63;;;;;;;8.10;100.00;99820.25;5040477;28;20265;-62
2023/04/02 07:35:03;;;;;;;1.60;1.27;;;;;;;7.45;100.00;99826.69;5034325;28;20181;-61
2023/04/02 07:37:28;;;;;;;1.03;0.80;;;;;;;7.03;100.00;99832.81;5033209;28;20201;-58
2023/04/02 07:39:53;;;;;;;1.00;1.00;;;;;;;6.80;100.00;99839.78;5034321;28;20186;-59
2023/04/02 07:42:19;;;;;;;1.00;1.00;;;;;;;6.59;100.00;99847.47;5039078;28;20232;-64
2023/04/02 07:44:44;;;;;;;2.17;0.87;;;;;;;6.61;100.00;99866.13;5033722;28;20174;-63
2023/04/02 07:47:09;;;;;;;1.77;0.90;;;;;;;6.42;100.00;99863.47;5033677;28;20545;-60
2023/04/02 07:49:35;;;;;;;0.90;0.90;;;;;;;6.44;100.00;99861.69;5034125;28;20206;-60
2023/04/02 07:52:00;;;;;;;0.90;0.90;;;;;;;6.42;100.00;99871.16;5038161;28;20252;-60
2023/04/02 07:54:26;;;;;;;0.93;0.93;;;;;;;6.48;100.00;99876.94;5034283;28;20190;-60
2023/04/02 07:56:51;;;;;;;1.10;1.10;;;;;;;6.50;100.00;99886.19;5033864;28;20182;-60
2023/04/02 07:59:16;;;;;;;0.90;0.90;;;;;;;6.54;100.00;99894.56;5033799;28;20193;-60
2023/04/02 08:01:42;;;;;;;1.23;1.20;;;;;;;6.53;100.00;99898.00;5035099;28;20229;-59
2023/04/02 08:04:16;;;;;;;0.80;0.80;;;;;;;6.45;100.00;99890.66;5033138;28;20542;-60
2023/04/02 08:06:42;;;;;;;0.80;0.80;;;;;;;6.45;100.00;99895.78;5048822;28;20194;-60
2023/04/02 08:09:07;;;;;;;1.13;1.00;;;;;;;6.38;100.00;99905.38;5033427;28;20236;-59
2023/04/02 08:11:32;;;;;;;0.73;0.73;;;;;;;6.39;100.00;99907.06;5035023;28;20225;-60
2023/04/02 08:13:57;;;;;;;0.77;0.77;;;;;;;6.41;100.00;99912.94;5036622;28;20202;-60
2023/04/02 08:16:24;;;;;;;0.60;0.60;;;;;;;6.30;100.00;99922.75;5033144;28;20184;-60
2023/04/02 08:18:49;;;;;;;0.80;0.73;;;;;;;6.28;100.00;99922.81;5033406;28;20244;-62
2023/04/02 08:21:15;;;;;;;0.60;0.60;;;;;;;6.34;100.00;99933.66;5032215;28;20228;-60
2023/04/02 08:23:41;;;;;;;0.70;0.70;;;;;;;6.37;100.00;99939.50;5038496;28;20186;-60
2023/04/02 08:26:08;;;;;;;0.60;0.60;;;;;;;6.37;100.00;99944.59;5033006;28;20181;-60
2023/04/02 08:28:34;;;;;;;0.60;0.60;;;;;;;6.50;100.00;99944.97;5031448;28;20205;-59
2023/04/02 08:31:00;;;;;;;0.60;0.60;;;;;;;6.48;100.00;99958.69;5041011;28;20228;-62
2023/04/02 08:33:25;;;;;;;1.70;0.80;;;;;;;6.55;100.00;99954.97;5031229;28;20649;-60
2023/04/02 08:35:51;;;;;;;0.60;0.60;;;;;;;6.62;100.00;99964.06;5032926;28;20174;-59
2023/04/02 08:38:19;;;;;;;0.70;0.70;;;;;;;6.52;100.00;99961.03;5032873;28;20182;-60
2023/04/02 08:40:47;;;;;;;3.80;1.57;;;;;;;6.44;100.00;99968.19;5023904;28;20710;-60
2023/04/02 08:43:40;;;;;;;1.53;0.70;;;;;;;6.53;100.00;99972.13;5031177;28;20181;-60
2023/04/02 08:46:13;;;;;;;0.60;0.60;;;;;;;6.44;100.00;99979.25;5048121;28;20206;-60
2023/04/02 08:48:43;;;;;;;1.70;0.70;;;;;;;6.43;100.00;99986.97;5032822;28;20244;-61
2023/04/02 08:51:21;;;;;;;0.70;0.60;;;;;;;6.53;100.00;99985.72;5028525;28;20262;-60
2023/04/02 08:53:46;;;;;;;2.17;0.70;;;;;;;6.62;100.00;99993.03;5030834;28;20290;-65
2023/04/02 08:56:18;;;;;;;0.60;0.60;;;;;;;6.53;100.00;100006.16;5032996;28;20602;-60
2023/04/02 08:58:49;;;;;;;0.63;0.50;;;;;;;6.56;100.00;100015.44;5047711;28;20962;-60
2023/04/02 09:01:33;;;;;;;0.50;0.50;;;;;;;6.46;100.00;100014.94;5040909;28;20889;-63
2023/04/02 09:04:02;;;;;;;0.60;0.60;;;;;;;6.54;100.00;100017.22;5031146;28;20181;-60
2023/04/02 09:06:28;;;;;;;0.70;0.70;;;;;;;6.40;100.00;100015.19;5031954;28;20721;-60
2023/04/02 09:08:55;;;;;;;1.30;0.60;;;;;;;6.32;100.00;100030.81;5032130;28;20676;-60
2023/04/02 09:11:25;;;;;;;1.63;0.70;;;;;;;6.34;100.00;100035.84;5031746;28;20307;-61
2023/04/02 09:13:59;;;;;;;0.40;0.40;;;;;;;6.32;100.00;100038.47;5030749;28;20563;-60
2023/04/02 09:16:57;;;;;;;0.97;0.80;;;;;;;6.44;100.00;100048.22;5047303;28;20184;-61
2023/04/02 09:19:30;;;;;;;0.73;0.73;;;;;;;6.48;100.00;100054.06;4990125;28;20203;-59
2023/04/02 09:22:21;;;;;;;0.50;0.50;;;;;;;6.35;100.00;100065.63;4960688;28;20235;-75
2023/04/02 09:24:58;;;;;;;0.70;0.70;;;;;;;6.29;100.00;100062.44;4971297;28;20279;-60
2023/04/02 09:27:27;;;;;;;1.17;0.53;;;;;;;6.24;100.00;100078.78;4954748;28;20305;-60
2023/04/02 09:30:02;;;;;;;0.50;0.50;;;;;;;6.14;100.00;100071.50;4970924;28;20220;-61
2023/04/02 09:33:12;;;;;;;1.03;0.70;;;;;;;6.10;100.00;100082.72;4963037;28;20693;-63
2023/04/02 09:35:46;;;;;;;1.87;0.53;;;;;;;6.10;100.00;100087.81;4985963;28;20198;-61
2023/04/02 09:38:30;;;;;;;3.37;0.77;;;;;;;6.11;100.00;100096.31;4978035;28;20546;-61
2023/04/02 09:41:19;;;;;;;0.67;0.47;;;;;;;6.02;100.00;100101.75;4963986;28;20234;-61
2023/04/02 09:43:44;;;;;;;0.60;0.60;;;;;;;6.01;100.00;100108.56;4973583;28;20733;-68
2023/04/02 09:46:12;;;;;;;0.70;0.70;;;;;;;6.00;100.00;100117.09;4989934;28;20191;-61
2023/04/02 09:48:43;;;;;;;0.70;0.70;;;;;;;5.92;100.00;100113.97;4989835;28;20227;-71
2023/04/02 09:51:16;;;;;;;0.60;0.60;;;;;;;5.93;100.00;100111.38;4980092;28;20238;-61
2023/04/02 09:53:48;;;;;;;0.90;0.90;;;;;;;6.01;100.00;100120.50;4973157;28;20205;-60
2023/04/02 09:56:20;;;;;;;0.70;0.70;;;;;;;6.06;100.00;100113.50;5013017;28;20556;-60
2023/04/02 09:59:04;;;;;;;0.80;0.80;;;;;;;6.13;100.00;100132.84;5031563;28;20174;-60
2023/04/02 10:01:34;;;;;;;1.00;0.90;;;;;;;6.29;100.00;100141.63;5019620;28;20732;-63
2023/04/02 10:04:02;;;;;;;0.80;0.80;;;;;;;6.36;100.00;100128.63;5030626;28;20181;-61
2023/04/02 10:06:28;;;;;;;0.90;0.90;;;;;;;6.55;100.00;100150.06;5046576;28;20177;-61
2023/04/02 10:08:54;;;;;;;0.90;0.90;;;;;;;6.32;100.00;100148.34;5029979;28;20309;-61
2023/04/02 10:11:34;;;;;;;1.00;1.00;;;;;;;6.35;100.00;100153.34;5030787;28;20320;-65
2023/04/02 10:14:04;;;;;;;0.83;0.83;;;;;;;6.45;100.00;100157.22;5039528;28;20202;-65
2023/04/02 10:16:35;;;;;;;0.93;0.93;;;;;;;6.41;100.00;100165.06;5031131;28;20186;-62
2023/04/02 10:19:41;;;;;;;1.73;1.03;;;;;;;6.53;100.00;100166.34;5046703;28;20198;-61
2023/04/02 10:22:17;;;;;;;1.10;1.10;;;;;;;6.43;100.00;100166.66;5036224;28;20274;-61
2023/04/02 10:24:43;;;;;;;1.20;1.10;;;;;;;6.41;100.00;100173.56;5030987;28;20181;-61
2023/04/02 10:27:16;;;;;;;1.30;1.20;;;;;;;6.36;100.00;100180.53;5031457;28;20943;-61
2023/04/02 10:29:47;;;;;;;1.17;1.00;;;;;;;6.37;100.00;100172.00;5031174;28;20197;-60
2023/04/02 10:32:19;;;;;;;1.40;1.30;;;;;;;6.48;100.00;100175.91;5021411;28;20635;-60
2023/04/02 10:35:12;;;;;;;2.27;1.07;;;;;;;6.62;100.00;100182.19;5046332;28;20206;-64
2023/04/02 10:38:03;;;;;;;1.03;0.90;;;;;;;6.71;100.00;100190.38;5031212;28;20198;-60
2023/04/02 10:40:55;;;;;;;1.00;1.00;;;;;;;6.85;100.00;100182.22;5023421;28;20699;-60
2023/04/02 10:43:37;;;;;;;0.80;0.80;;;;;;;7.01;100.00;100187.56;5039534;28;20182;-62
2023/04/02 10:46:13;;;;;;;0.90;0.90;;;;;;;7.08;100.00;100194.09;5035868;28;20185;-61
2023/04/02 10:48:51;;;;;;;0.90;0.90;;;;;;;6.92;100.00;100198.97;5030648;28;20263;-60
2023/04/02 10:51:38;;;;;;;1.30;1.20;;;;;;;6.87;100.00;100211.09;5023048;28;20248;-61
2023/04/02 10:54:20;;;;;;;1.10;1.10;;;;;;;7.14;100.00;100219.44;5033696;28;20523;-61
2023/04/02 10:56:46;;;;;;;1.30;1.20;;;;;;;7.02;100.00;100223.31;5029359;28;20189;-63
2023/04/02 10:59:21;;;;;;;1.20;1.10;;;;;;;7.09;100.00;100232.44;5030007;28;20598;-61
2023/04/02 11:01:50;;;;;;;1.43;1.03;;;;;;;6.87;100.00;100231.56;5028792;28;20278;-60
2023/04/02 11:04:18;;;;;;;1.07;1.07;;;;;;;6.98;100.00;100231.16;5029327;28;20193;-61
2023/04/02 11:06:58;;;;;;;1.40;1.20;;;;;;;7.20;100.00;100228.63;5029252;28;20212;-60
2023/04/02 11:09:28;;;;;;;1.47;1.37;;;;;;;7.30;100.00;100231.66;5021047;28;20229;-61
2023/04/02 11:11:56;;;;;;;1.37;1.27;;;;;;;7.54;100.00;100243.50;5022368;28;20308;-73
2023/04/02 11:14:30;;;;;;;2.10;1.00;;;;;;;7.75;100.00;100246.06;5035057;28;20206;-64
2023/04/02 11:16:58;;;;;;;1.30;1.20;;;;;;;7.73;100.00;100250.44;5038830;28;20229;-61
2023/04/02 11:19:27;;;;;;;1.20;1.10;;;;;;;7.54;100.00;100240.09;5032904;28;20182;-66
2023/04/02 11:21:59;;;;;;;1.20;1.10;;;;;;;7.95;100.00;100245.28;5042670;28;20224;-61
2023/04/02 11:24:31;;;;;;;0.90;0.90;;;;;;;7.86;100.00;100253.34;5034642;28;20190;-61
2023/04/02 11:27:04;;;;;;;1.40;1.30;;;;;;;7.91;100.00;100254.81;5034389;28;20174;-62
2023/04/02 11:29:33;;;;;;;1.23;1.13;;;;;;;7.75;100.00;100259.72;5032846;28;20205;-60
2023/04/02 11:32:26;;;;;;;1.97;1.63;;;;;;;8.00;100.00;100258.72;5051701;28;20224;-65
2023/04/02 11:34:52;;;;;;;1.30;1.20;;;;;;;8.14;100.00;100273.53;5038330;28;20181;-60
2023/04/02 11:37:35;;;;;;;1.07;1.07;;;;;;;7.68;100.00;100286.47;5053814;28;20185;-64
2023/04/02 11:40:06;;;;;;;0.97;0.97;;;;;;;7.29;100.00;100292.22;5023453;28;20273;-60
2023/04/02 11:42:33;;;;;;;1.40;1.30;;;;;;;7.43;100.00;100295.09;5001420;28;20209;-61
2023/04/02 11:47:58;;;;;;;0.93;0.93;;;;;;;7.54;100.00;100298.97;5014070;28;20277;-61
2023/04/02 11:50:37;;;;;;;1.07;1.00;;;;;;;7.54;100.00;100298.97;5006407;28;20237;-60
2023/04/02 11:53:05;;;;;;;1.90;1.30;;;;;;;7.62;100.00;100302.06;5012149;28;20536;-60
2023/04/02 11:55:35;;;;;;;1.30;1.20;;;;;;;7.47;100.00;100302.66;5012560;28;20178;-60
2023/04/02 11:58:08;;;;;;;1.17;1.10;;;;;;;7.34;100.00;100313.34;5029267;28;20179;-61
2023/04/02 12:00:58;;;;;;;1.00;1.00;;;;;;;7.29;100.00;100317.81;5004298;28;20230;-60
2023/04/02 12:03:45;;;;;;;1.43;1.33;;;;;;;7.03;100.00;100318.78;5021448;28;20183;-60
2023/04/02 12:06:28;;;;;;;1.30;1.20;;;;;;;7.15;100.00;100332.88;5013679;28;20665;-59